createdAt,value
2023-02-22T00:02:31.222Z,97.42
2023-02-22T00:05:32.248Z,97.50
2023-02-22T00:08:32.263Z,98.32
2023-02-22T00:11:32.240Z,97.92
2023-02-22T00:14:35.207Z,97.77
2023-02-22T00:17:37.216Z,97.60
2023-02-22T00:20:37.252Z,97.71
2023-02-22T00:23:37.296Z,95.35
2023-02-22T00:26:37.262Z,96.05
2023-02-22T00:29:38.241Z,94.92
2023-02-22T00:32:38.303Z,95.53
2023-02-22T00:35:41.236Z,94.59
2023-02-22T00:38:41.225Z,95.12
2023-02-22T00:41:41.299Z,95.25
2023-02-22T00:44:41.230Z,95.08
2023-02-22T00:47:41.272Z,94.55
2023-02-22T00:50:42.267Z,94.77
2023-02-22T00:53:42.222Z,94.49
2023-02-22T00:56:42.265Z,93.70
2023-02-22T00:59:42.208Z,92.93
2023-02-22T01:02:43.263Z,93.23
2023-02-22T01:05:45.232Z,93.32
2023-02-22T01:08:45.246Z,92.19
2023-02-22T01:11:45.261Z,92.21
2023-02-22T01:14:46.220Z,90.07
2023-02-22T01:17:46.257Z,89.44
2023-02-22T01:20:46.268Z,88.89
2023-02-22T01:23:46.262Z,87.77
2023-02-22T01:26:46.242Z,88.95
2023-02-22T01:29:46.256Z,88.66
2023-02-22T01:32:46.193Z,88.62
2023-02-22T01:35:48.224Z,88.97
2023-02-22T01:38:48.220Z,88.80
2023-02-22T01:41:48.270Z,89.13
2023-02-22T01:44:50.214Z,89.38
2023-02-22T01:47:50.247Z,88.79
2023-02-22T01:50:59.216Z,89.72
2023-02-22T01:54:06.226Z,90.19
2023-02-22T01:57:22.222Z,89.68
2023-02-22T02:00:27.226Z,89.75
2023-02-22T02:03:40.209Z,89.79
2023-02-22T02:06:45.277Z,89.95
2023-02-22T02:10:01.214Z,89.74
2023-02-22T02:13:03.220Z,89.29
2023-02-22T02:16:03.275Z,88.57
2023-02-22T02:19:03.264Z,87.71
2023-02-22T02:22:14.256Z,87.32
2023-02-22T02:25:37.270Z,87.52
2023-02-22T02:29:22.262Z,85.57
2023-02-22T02:32:28.297Z,85.99
2023-02-22T02:35:50.249Z,85.28
2023-02-22T02:39:11.264Z,85.12
2023-02-22T02:42:13.221Z,84.12
2023-02-22T02:45:23.234Z,84.08
2023-02-22T02:48:25.224Z,84.18
2023-02-22T02:51:25.279Z,84.23
2023-02-22T02:54:25.243Z,84.02
2023-02-22T02:57:25.194Z,83.09
2023-02-22T03:00:30.207Z,82.87
2023-02-22T03:03:36.190Z,83.14
2023-02-22T03:06:49.221Z,83.08
2023-02-22T03:10:19.215Z,83.63
2023-02-22T03:13:43.214Z,83.03
2023-02-22T03:17:00.190Z,82.98
2023-02-22T03:20:16.264Z,83.28
2023-02-22T03:23:45.268Z,84.10
2023-02-22T03:27:01.221Z,83.31
2023-02-22T03:30:03.255Z,82.93
2023-02-22T03:33:06.268Z,82.23
2023-02-22T03:36:12.261Z,82.61
2023-02-22T03:39:14.248Z,83.08
2023-02-22T03:42:18.209Z,83.96
2023-02-22T03:45:19.229Z,83.59
2023-02-22T03:48:46.264Z,83.77
2023-02-22T03:51:47.216Z,83.46
2023-02-22T03:54:47.228Z,84.35
2023-02-22T03:57:49.275Z,84.48
2023-02-22T04:00:51.254Z,83.45
2023-02-22T04:03:51.260Z,84.16
2023-02-22T04:06:51.250Z,83.85
2023-02-22T04:09:51.474Z,83.72
2023-02-22T04:12:51.260Z,83.92
2023-02-22T04:15:51.318Z,84.30
2023-02-22T04:18:51.258Z,83.33
2023-02-22T04:21:51.190Z,83.78
2023-02-22T04:24:52.274Z,85.16
2023-02-22T04:27:52.238Z,85.02
2023-02-22T04:30:53.316Z,85.01
2023-02-22T04:33:54.262Z,85.57
2023-02-22T04:36:54.248Z,86.21
2023-02-22T04:39:54.299Z,86.65
2023-02-22T04:42:55.228Z,87.20
2023-02-22T04:45:55.253Z,87.13
2023-02-22T04:48:55.275Z,87.31
2023-02-22T04:51:56.256Z,87.45
2023-02-22T04:54:57.273Z,86.94
2023-02-22T04:57:57.260Z,86.75
2023-02-22T05:00:57.256Z,86.49
2023-02-22T05:03:57.228Z,85.87
2023-02-22T05:06:57.222Z,85.86
2023-02-22T05:09:57.268Z,85.83
2023-02-22T05:12:57.211Z,85.08
2023-02-22T05:15:57.320Z,85.05
2023-02-22T05:18:57.211Z,85.45
2023-02-22T05:21:57.233Z,84.77
2023-02-22T05:24:59.210Z,85.21
2023-02-22T05:27:59.239Z,85.33
2023-02-22T05:30:59.255Z,85.38
2023-02-22T05:33:59.262Z,85.20
2023-02-22T05:36:59.215Z,85.35
2023-02-22T05:39:59.236Z,85.87
2023-02-22T05:42:59.268Z,86.29
2023-02-22T05:45:59.265Z,85.87
2023-02-22T05:48:59.221Z,86.41
2023-02-22T05:51:59.251Z,86.58
2023-02-22T05:54:59.262Z,85.92
2023-02-22T05:57:59.213Z,84.01
2023-02-22T06:00:59.261Z,84.23
2023-02-22T06:04:05.241Z,83.81
2023-02-22T06:07:05.221Z,83.17
2023-02-22T06:10:05.263Z,82.71
2023-02-22T06:13:06.248Z,83.19
2023-02-22T06:16:06.312Z,81.30
2023-02-22T06:19:06.251Z,81.66
2023-02-22T06:22:09.253Z,82.32
2023-02-22T06:25:09.215Z,81.28
2023-02-22T06:28:09.263Z,81.69
2023-02-22T06:31:09.237Z,79.93
2023-02-22T06:34:09.289Z,80.96
2023-02-22T06:37:09.238Z,80.96
2023-02-22T06:40:09.255Z,79.46
2023-02-22T06:43:10.228Z,78.83
2023-02-22T06:46:10.254Z,78.96
2023-02-22T06:49:24.223Z,79.38
2023-02-22T06:52:36.864Z,78.71
2023-02-22T06:55:42.235Z,77.60
2023-02-22T06:58:46.247Z,76.96
2023-02-22T07:01:47.237Z,77.19
2023-02-22T07:04:53.232Z,77.08
2023-02-22T07:07:53.267Z,76.73
2023-02-22T07:10:53.226Z,76.33
2023-02-22T07:13:53.229Z,75.80
2023-02-22T07:16:53.247Z,75.16
2023-02-22T07:19:53.436Z,74.65
2023-02-22T07:23:02.491Z,74.28
2023-02-22T07:26:02.232Z,74.09
2023-02-22T07:29:02.244Z,72.85
2023-02-22T07:32:11.625Z,72.23
2023-02-22T07:35:12.589Z,72.08
2023-02-22T07:38:12.357Z,71.83
2023-02-22T07:41:12.268Z,69.94
2023-02-22T07:44:15.326Z,70.88
2023-02-22T07:47:20.276Z,69.90
2023-02-22T07:50:21.252Z,68.88
2023-02-22T07:53:28.464Z,68.76
2023-02-22T07:56:30.277Z,69.12
2023-02-22T07:59:30.227Z,68.73
2023-02-22T08:02:32.374Z,67.90
2023-02-22T08:05:33.231Z,65.89
2023-02-22T08:08:33.255Z,65.18
2023-02-22T08:11:33.265Z,64.37
2023-02-22T08:14:40.388Z,63.43
2023-02-22T08:17:40.275Z,63.28
2023-02-22T08:20:34.271Z,60.67
2023-02-22T08:23:16.861Z,61.55
2023-02-22T08:26:02.267Z,61.10
2023-02-22T08:28:43.242Z,60.46
2023-02-22T08:35:06.404Z,60.38
2023-02-22T08:38:13.664Z,59.88
2023-02-22T08:41:14.631Z,60.96
2023-02-22T08:44:14.254Z,61.04
2023-02-22T08:47:18.400Z,58.51
2023-02-22T08:50:23.847Z,58.39
2023-02-22T08:56:23.355Z,57.58
2023-02-22T08:59:23.327Z,58.20
2023-02-22T09:02:31.262Z,57.90
2023-02-22T09:05:34.237Z,56.25
2023-02-22T09:08:34.209Z,55.68
2023-02-22T09:11:34.246Z,55.28
2023-02-22T09:14:37.294Z,55.02
2023-02-22T09:17:37.246Z,55.56
2023-02-22T09:20:39.300Z,55.01
2023-02-22T09:23:39.248Z,55.18
2023-02-22T09:27:13.993Z,53.75
2023-02-22T09:30:20.285Z,51.97
2023-02-22T09:33:42.205Z,51.51
2023-02-22T09:36:42.324Z,49.44
2023-02-22T09:39:44.285Z,50.43
2023-02-22T09:42:49.238Z,49.62
2023-02-22T09:46:02.490Z,47.12
2023-02-22T09:49:08.690Z,47.67
2023-02-22T09:52:29.566Z,46.99
2023-02-22T09:55:43.218Z,46.05
2023-02-22T09:58:50.225Z,40.90
2023-02-22T10:02:02.286Z,37.09
2023-02-22T10:05:12.309Z,34.82
2023-02-22T10:08:15.233Z,34.25
2023-02-22T10:11:26.246Z,31.21
2023-02-22T10:14:43.800Z,29.81
2023-02-22T10:17:50.254Z,30.17
2023-02-22T10:20:56.238Z,30.83
2023-02-22T10:23:56.279Z,31.24
2023-02-22T10:26:57.226Z,29.79
2023-02-22T10:30:00.294Z,30.22
2023-02-22T10:33:04.236Z,28.92
2023-02-22T10:36:06.297Z,30.98
2023-02-22T10:39:14.239Z,30.43
2023-02-22T10:42:22.231Z,31.38
2023-02-22T10:45:43.262Z,30.26
2023-02-22T10:48:45.269Z,29.84
2023-02-22T10:51:46.286Z,29.85
2023-02-22T10:54:55.494Z,31.80
2023-02-22T10:57:59.267Z,35.73
2023-02-22T11:00:59.345Z,36.68
2023-02-22T11:04:01.271Z,35.17
2023-02-22T11:07:03.266Z,35.63
2023-02-22T11:10:11.269Z,36.59
2023-02-22T11:13:11.290Z,33.71
2023-02-22T11:16:17.329Z,31.30
2023-02-22T11:19:23.324Z,30.06
2023-02-22T11:22:33.243Z,28.58
2023-02-22T11:25:37.293Z,30.23
2023-02-22T11:28:42.263Z,30.86
2023-02-22T11:31:43.324Z,32.03
2023-02-22T11:34:44.295Z,34.01
2023-02-22T11:37:49.242Z,36.95
2023-02-22T11:40:49.297Z,37.93
2023-02-22T11:43:49.280Z,40.10
2023-02-22T11:46:49.323Z,40.52
2023-02-22T11:49:56.261Z,41.25
2023-02-22T11:52:59.290Z,41.71
2023-02-22T11:56:38.549Z,42.48
2023-02-22T12:00:03.260Z,42.98
2023-02-22T12:03:42.344Z,44.14
2023-02-22T12:06:52.251Z,43.74
2023-02-22T12:09:57.286Z,42.11
2023-02-22T12:13:11.284Z,41.26
2023-02-22T12:16:19.616Z,41.83
2023-02-22T12:19:24.289Z,40.75
2023-02-22T12:22:32.228Z,41.63
2023-02-22T12:25:32.292Z,42.18
2023-02-22T12:28:38.333Z,42.92
2023-02-22T12:31:55.357Z,41.24
2023-02-22T12:35:12.309Z,42.06
2023-02-22T12:38:16.309Z,41.98
2023-02-22T12:41:24.284Z,41.68
2023-02-22T12:44:31.258Z,41.50
2023-02-22T12:47:35.300Z,41.41
2023-02-22T12:50:41.306Z,41.51
2023-02-22T12:53:43.253Z,42.57
2023-02-22T12:56:44.316Z,42.53
2023-02-22T12:59:50.288Z,43.06
2023-02-22T13:03:08.298Z,43.07
2023-02-22T13:06:45.300Z,42.69
2023-02-22T13:10:03.305Z,43.93
2023-02-22T13:13:21.289Z,45.12
2023-02-22T13:17:00.312Z,46.59
2023-02-22T13:20:15.266Z,46.06
2023-02-22T13:23:13.430Z,46.23
2023-02-22T13:26:22.257Z,46.46
2023-02-22T13:29:26.314Z,46.83
2023-02-22T13:33:03.295Z,45.45
2023-02-22T13:36:53.259Z,45.46
2023-02-22T13:40:10.358Z,45.92
2023-02-22T13:43:19.283Z,45.48
2023-02-22T13:46:38.309Z,45.53
2023-02-22T13:49:52.299Z,45.09
2023-02-22T13:52:54.305Z,45.91
2023-02-22T13:55:58.307Z,45.95
2023-02-22T13:59:04.248Z,46.60
2023-02-22T14:02:06.335Z,46.36
2023-02-22T14:05:06.349Z,45.88
2023-02-22T14:08:06.291Z,46.78
2023-02-22T14:11:33.255Z,46.77
2023-02-22T14:14:33.282Z,46.38
2023-02-22T14:17:33.259Z,46.76
2023-02-22T14:20:52.263Z,46.79
2023-02-22T14:23:56.298Z,46.82
2023-02-22T14:27:08.247Z,48.10
2023-02-22T14:30:12.293Z,48.54
2023-02-22T14:33:12.264Z,48.77
2023-02-22T14:36:13.276Z,49.01
2023-02-22T14:39:21.301Z,48.57
2023-02-22T14:42:31.303Z,49.62
2023-02-22T14:45:59.306Z,49.68
2023-02-22T14:49:00.271Z,49.77
2023-02-22T14:52:07.293Z,50.74
2023-02-22T14:55:34.457Z,51.66
2023-02-22T14:58:43.285Z,51.84
2023-02-22T15:01:58.703Z,52.50
2023-02-22T15:05:11.282Z,53.29
2023-02-22T15:08:13.279Z,53.76
2023-02-22T15:11:13.321Z,53.72
2023-02-22T15:14:25.156Z,54.68
2023-02-22T15:17:36.293Z,55.01
2023-02-22T15:20:37.294Z,54.72
2023-02-22T15:23:44.517Z,55.77
2023-02-22T15:27:01.633Z,56.15
2023-02-22T15:30:02.428Z,55.79
2023-02-22T15:33:04.766Z,56.44
2023-02-22T15:36:11.264Z,56.88
2023-02-22T15:39:15.365Z,57.92
2023-02-22T15:42:29.901Z,57.43
2023-02-22T15:45:35.320Z,57.97
2023-02-22T15:48:35.272Z,57.24
2023-02-22T15:51:35.258Z,57.16
2023-02-22T15:54:35.265Z,57.51
2023-02-22T15:57:37.274Z,57.84
2023-02-22T16:00:46.314Z,59.06
2023-02-22T16:03:54.314Z,58.19
2023-02-22T16:06:55.302Z,58.88
2023-02-22T16:10:00.436Z,60.17
2023-02-22T16:13:00.311Z,61.36
2023-02-22T16:16:08.260Z,60.98
2023-02-22T16:19:42.695Z,61.71
2023-02-22T16:22:41.259Z,62.08
2023-02-22T16:25:34.265Z,62.48
2023-02-22T16:28:42.260Z,62.66
2023-02-22T16:31:45.448Z,62.85
2023-02-22T16:34:45.288Z,63.14
2023-02-22T16:37:38.250Z,63.25
2023-02-22T16:40:44.299Z,63.54
2023-02-22T16:43:45.297Z,64.06
2023-02-22T16:46:45.303Z,64.15
2023-02-22T16:49:45.293Z,64.85
2023-02-22T16:52:45.305Z,66.03
2023-02-22T16:55:45.288Z,66.11
2023-02-22T16:58:50.290Z,66.56
2023-02-22T17:01:50.314Z,67.36
2023-02-22T17:04:55.304Z,67.78
2023-02-22T17:07:56.298Z,68.75
2023-02-22T17:10:58.269Z,69.50
2023-02-22T17:13:58.301Z,69.46
2023-02-22T17:17:00.908Z,70.15
2023-02-22T17:20:01.280Z,71.15
2023-02-22T17:23:01.256Z,71.95
2023-02-22T17:26:10.285Z,72.20
2023-02-22T17:29:10.254Z,72.87
2023-02-22T17:32:10.302Z,73.67
2023-02-22T17:35:10.272Z,74.79
2023-02-22T17:38:12.264Z,75.67
2023-02-22T17:41:13.299Z,76.16
2023-02-22T17:44:13.276Z,76.00
2023-02-22T17:47:13.301Z,76.11
2023-02-22T17:50:13.308Z,76.53
2023-02-22T17:53:13.273Z,77.00
2023-02-22T17:56:24.271Z,78.66
2023-02-22T17:59:24.243Z,78.51
2023-02-22T18:02:24.383Z,78.38
2023-02-22T18:05:25.255Z,78.62
2023-02-22T18:08:25.284Z,78.32
2023-02-22T18:11:25.307Z,78.86
2023-02-22T18:14:25.282Z,78.79
2023-02-22T18:17:25.274Z,79.15
2023-02-22T18:20:37.250Z,79.52
2023-02-22T18:23:37.295Z,79.81
2023-02-22T18:26:37.323Z,80.33
2023-02-22T18:29:37.280Z,80.66
2023-02-22T18:32:38.308Z,81.53
2023-02-22T18:35:38.337Z,81.34
2023-02-22T18:38:38.291Z,81.41
2023-02-22T18:41:38.257Z,81.37
2023-02-22T18:44:39.256Z,81.93
2023-02-22T18:47:39.302Z,81.76
2023-02-22T18:50:39.268Z,81.86
2023-02-22T18:53:39.285Z,82.29
2023-02-22T18:56:40.294Z,81.73
2023-02-22T18:59:40.250Z,82.17
2023-02-22T19:02:40.298Z,83.40
2023-02-22T19:05:40.272Z,83.73
2023-02-22T19:08:40.260Z,84.74
2023-02-22T19:11:40.308Z,85.03
2023-02-22T19:14:40.280Z,85.82
2023-02-22T19:17:43.253Z,85.98
2023-02-22T19:20:43.291Z,86.16
2023-02-22T19:23:43.413Z,86.23
2023-02-22T19:26:43.281Z,85.51
2023-02-22T19:29:49.439Z,85.67
2023-02-22T19:32:53.282Z,85.28
2023-02-22T19:35:54.270Z,85.50
2023-02-22T19:38:54.248Z,85.53
2023-02-22T19:41:54.254Z,85.76
2023-02-22T19:44:55.285Z,86.17
2023-02-22T19:47:55.266Z,87.30
2023-02-22T19:51:04.277Z,87.66
2023-02-22T19:54:04.302Z,87.71
2023-02-22T19:57:05.245Z,87.79
2023-02-22T20:00:05.299Z,88.09
2023-02-22T20:03:15.286Z,87.99
2023-02-22T20:06:15.287Z,88.18
2023-02-22T20:09:15.316Z,88.22
2023-02-22T20:12:15.290Z,88.22
2023-02-22T20:15:15.287Z,88.71
2023-02-22T20:18:15.281Z,89.16
2023-02-22T20:21:20.482Z,89.46
2023-02-22T20:24:22.280Z,89.79
2023-02-22T20:27:22.250Z,89.62
2023-02-22T20:30:24.279Z,90.35
2023-02-22T20:33:24.406Z,90.24
2023-02-22T20:36:25.294Z,90.37
2023-02-22T20:39:26.258Z,90.95
2023-02-22T20:42:26.253Z,90.87
2023-02-22T20:45:26.302Z,91.35
2023-02-22T20:48:26.263Z,91.36
2023-02-22T20:51:27.286Z,91.76
2023-02-22T20:54:27.303Z,92.28
2023-02-22T20:57:27.230Z,92.38
2023-02-22T21:00:27.252Z,92.47
2023-02-22T21:03:27.270Z,92.71
2023-02-22T21:06:28.294Z,93.00
2023-02-22T21:09:30.243Z,93.20
2023-02-22T21:12:30.298Z,93.06
2023-02-22T21:15:32.258Z,93.57
2023-02-22T21:18:34.261Z,93.73
2023-02-22T21:21:34.285Z,94.09
2023-02-22T21:24:36.163Z,94.71
2023-02-22T21:27:36.234Z,94.63
2023-02-22T21:30:36.367Z,93.43
2023-02-22T21:33:38.295Z,93.27
2023-02-22T21:36:39.240Z,93.21
2023-02-22T21:39:35.302Z,93.37
2023-02-22T21:42:21.305Z,93.86
2023-02-22T21:45:21.307Z,93.97
2023-02-22T21:48:21.273Z,95.25
2023-02-22T21:51:42.294Z,95.38
2023-02-22T21:54:42.285Z,95.37
2023-02-22T21:57:43.258Z,95.46
2023-02-22T22:00:44.291Z,95.74
2023-02-22T22:03:44.299Z,95.72
2023-02-22T22:06:46.285Z,95.94
2023-02-22T22:09:48.244Z,96.62
2023-02-22T22:12:49.270Z,97.35
2023-02-22T22:15:49.296Z,96.88
2023-02-22T22:18:50.254Z,97.15
2023-02-22T22:21:50.250Z,97.31
2023-02-22T22:24:52.286Z,97.59
2023-02-22T22:27:55.242Z,98.28
2023-02-22T22:30:55.325Z,98.18
2023-02-22T22:33:56.339Z,98.20
2023-02-22T22:36:56.253Z,97.86
2023-02-22T22:39:56.262Z,97.77
2023-02-22T22:42:56.257Z,97.74
2023-02-22T22:45:56.340Z,97.21
2023-02-22T22:48:56.278Z,96.52
2023-02-22T22:51:56.277Z,95.50
2023-02-22T22:54:57.266Z,94.39
2023-02-22T22:57:57.245Z,94.13
2023-02-22T23:00:57.264Z,93.20
2023-02-22T23:04:03.272Z,92.80
2023-02-22T23:07:04.246Z,91.92
2023-02-22T23:10:04.227Z,91.61
2023-02-22T23:13:04.230Z,91.54
2023-02-22T23:16:04.333Z,91.15
2023-02-22T23:19:05.238Z,90.57
2023-02-22T23:22:05.447Z,90.21
2023-02-22T23:25:06.281Z,89.72
2023-02-22T23:28:07.289Z,89.79
2023-02-22T23:31:09.380Z,89.33
2023-02-22T23:34:17.283Z,89.29
2023-02-22T23:37:17.257Z,88.92
2023-02-22T23:40:23.246Z,88.86
2023-02-22T23:43:23.229Z,88.76
2023-02-22T23:46:29.282Z,88.91
2023-02-22T23:49:30.293Z,88.66
2023-02-22T23:52:30.244Z,88.76
2023-02-22T23:55:30.282Z,89.01
2023-02-22T23:58:30.229Z,88.59
